Time;durP1;ratioP1;P1;durP2;ratioP2;P2;SDS_P1;SDS_P2;PMS_P1;PMS_P2;Temp;Humidity;BMP_temperature;BMP_pressure;BME280_temperature;BME280_humidity;BME280_pressure;Samples;Min_cycle;Max_cycle;Signal;HPM_P1;HPM_P2
2023/09/23 00:01:43;;;;;;;0.00;0.00;;;;;;;11.79;100.00;100675.25;5090678;28;20561;-43
2023/09/23 00:04:09;;;;;;;0.00;0.00;;;;;;;11.76;100.00;100678.34;5091368;28;20043;-44
2023/09/23 00:06:34;;;;;;;0.00;0.00;;;;;;;11.78;100.00;100676.28;5091068;28;20079;-41
2023/09/23 00:09:01;;;;;;;0.00;0.00;;;;;;;11.72;100.00;100677.06;5090104;28;20456;-40
2023/09/23 00:11:26;;;;;;;0.00;0.00;;;;;;;11.67;100.00;100674.13;5097704;28;20157;-43
2023/09/23 00:13:52;;;;;;;0.00;0.00;;;;;;;11.61;100.00;100671.16;5099976;28;20198;-42
2023/09/23 00:16:17;;;;;;;0.00;0.00;;;;;;;11.59;100.00;100673.22;5090579;28;20128;-43
2023/09/23 00:18:45;;;;;;;0.00;0.00;;;;;;;11.59;100.00;100686.69;5090183;28;20105;-44
2023/09/23 00:21:12;;;;;;;0.00;0.00;;;;;;;11.54;100.00;100686.44;5090820;28;20277;-41
2023/09/23 00:23:38;;;;;;;0.00;0.00;;;;;;;11.47;100.00;100704.38;5107978;28;20343;-43
2023/09/23 00:26:04;;;;;;;0.00;0.00;;;;;;;11.41;100.00;100702.47;5104269;28;20094;-43
2023/09/23 00:28:33;;;;;;;0.00;0.00;;;;;;;11.42;100.00;100694.19;5092007;28;20032;-39
2023/09/23 00:31:10;;;;;;;0.00;0.00;;;;;;;11.54;100.00;100696.38;5091763;28;20081;-39
2023/09/23 00:33:37;;;;;;;;;;;;;;;11.50;100.00;100700.47;5098190;28;20353;-42
2023/09/23 00:36:07;;;;;;;0.00;0.00;;;;;;;11.45;100.00;100695.66;5100825;28;20003;-42
2023/09/23 00:38:32;;;;;;;0.00;0.00;;;;;;;11.44;100.00;100702.09;5102971;28;20058;-41
2023/09/23 00:40:58;;;;;;;0.00;0.00;;;;;;;11.45;100.00;100702.91;5095076;28;20039;-42
2023/09/23 00:43:23;;;;;;;0.00;0.00;;;;;;;11.42;100.00;100704.13;5102456;28;20125;-42
2023/09/23 00:45:51;;;;;;;0.00;0.00;;;;;;;11.45;100.00;100698.34;5108939;28;20020;-45
2023/09/23 00:48:20;;;;;;;0.00;0.00;;;;;;;11.46;100.00;100710.81;5097886;28;20043;-47
2023/09/23 00:50:47;;;;;;;0.00;0.00;;;;;;;11.49;100.00;100710.44;5103875;27;20063;-48
2023/09/23 00:53:12;;;;;;;0.00;0.00;;;;;;;11.47;100.00;100712.47;5093954;28;20097;-48
2023/09/23 00:55:42;;;;;;;0.00;0.00;;;;;;;11.51;100.00;100716.47;5092838;28;20032;-45
2023/09/23 00:58:14;;;;;;;0.00;0.00;;;;;;;11.56;100.00;100708.66;5096871;28;20027;-42
2023/09/23 01:00:43;;;;;;;0.00;0.00;;;;;;;11.55;100.00;100704.25;5103237;28;20054;-44
2023/09/23 01:03:09;;;;;;;0.00;0.00;;;;;;;11.57;100.00;100712.16;5096850;28;20028;-44
2023/09/23 01:05:35;;;;;;;0.00;0.00;;;;;;;11.58;100.00;100720.06;5096585;28;20036;-44
2023/09/23 01:08:04;;;;;;;0.00;0.00;;;;;;;11.60;100.00;100723.41;5095299;28;20053;-44
2023/09/23 01:10:29;;;;;;;0.00;0.00;;;;;;;11.63;100.00;100722.19;5111466;28;20119;-42
2023/09/23 01:12:56;;;;;;;0.00;0.00;;;;;;;11.61;100.00;100719.69;5102064;28;20110;-42
2023/09/23 01:15:25;;;;;;;0.00;0.00;;;;;;;11.65;100.00;100720.97;5104778;27;20055;-43
2023/09/23 01:17:53;;;;;;;0.00;0.00;;;;;;;11.65;100.00;100715.56;5108436;28;20055;-43
2023/09/23 01:20:20;;;;;;;0.00;0.00;;;;;;;11.70;100.00;100717.69;5112336;28;20035;-44
2023/09/23 01:22:48;;;;;;;0.00;0.00;;;;;;;11.69;100.00;100724.13;5106121;28;20028;-44
2023/09/23 01:25:14;;;;;;;0.00;0.00;;;;;;;11.73;100.00;100716.47;5102304;28;20134;-43
2023/09/23 01:27:40;;;;;;;0.00;0.00;;;;;;;11.75;100.00;100725.22;5107834;28;20118;-43
2023/09/23 01:30:07;;;;;;;0.00;0.00;;;;;;;11.74;100.00;100721.69;5093893;28;20036;-46
2023/09/23 01:32:48;;;;;;;0.00;0.00;;;;;;;11.71;100.00;100718.53;5111447;28;20035;-44
2023/09/23 01:35:16;;;;;;;0.00;0.00;;;;;;;11.73;100.00;100727.25;5102672;28;20097;-41
2023/09/23 01:37:44;;;;;;;0.00;0.00;;;;;;;11.76;100.00;100725.00;5105089;28;20039;-45
2023/09/23 01:40:09;;;;;;;0.00;0.00;;;;;;;11.76;100.00;100722.31;5091649;28;20414;-43
2023/09/23 01:42:35;;;;;;;0.00;0.00;;;;;;;11.83;100.00;100730.47;5096512;28;20058;-45
2023/09/23 01:45:03;;;;;;;0.00;0.00;;;;;;;11.83;100.00;100728.59;5108630;28;20032;-48
2023/09/23 01:47:28;;;;;;;;;;;;;;;11.82;100.00;100740.44;5112399;28;20023;-45
2023/09/23 01:49:54;;;;;;;0.00;0.00;;;;;;;11.78;100.00;100751.78;5097672;28;19911;-43
2023/09/23 01:52:19;;;;;;;0.00;0.00;;;;;;;11.80;100.00;100750.56;5109381;28;20027;-42
2023/09/23 01:54:46;;;;;;;0.00;0.00;;;;;;;11.80;100.00;100749.75;5103282;28;20024;-43
2023/09/23 01:57:17;;;;;;;0.00;0.00;;;;;;;11.77;100.00;100745.56;5090998;28;20122;-43
2023/09/23 01:59:43;;;;;;;0.00;0.00;;;;;;;11.78;100.00;100749.09;5095359;28;20481;-43
2023/09/23 02:02:12;;;;;;;0.00;0.00;;;;;;;11.77;100.00;100748.25;5109540;28;20036;-41
2023/09/23 02:04:39;;;;;;;0.00;0.00;;;;;;;11.77;100.00;100744.72;5106709;28;20032;-43
2023/09/23 02:07:04;;;;;;;0.00;0.00;;;;;;;11.71;100.00;100748.19;5105290;28;20108;-41
2023/09/23 02:09:37;;;;;;;0.00;0.00;;;;;;;11.69;100.00;100753.78;5098216;28;20470;-41
2023/09/23 02:12:02;;;;;;;0.00;0.00;;;;;;;11.61;100.00;100746.66;5093579;28;20035;-45
2023/09/23 02:14:29;;;;;;;0.00;0.00;;;;;;;11.59;100.00;100746.00;5111230;28;20035;-44
2023/09/23 02:16:55;;;;;;;0.00;0.00;;;;;;;11.58;100.00;100741.63;5109149;28;20031;-43
2023/09/23 02:19:21;;;;;;;0.00;0.00;;;;;;;11.58;100.00;100741.63;5112567;28;20382;-43
2023/09/23 02:21:47;;;;;;;0.00;0.00;;;;;;;11.57;100.00;100745.34;5112365;28;20024;-42
2023/09/23 02:24:13;;;;;;;0.00;0.00;;;;;;;11.59;100.00;100742.47;5101488;28;20123;-45
2023/09/23 02:26:38;;;;;;;0.00;0.00;;;;;;;11.55;100.00;100747.38;5090938;28;20034;-47
2023/09/23 02:29:04;;;;;;;0.00;0.00;;;;;;;11.59;100.00;100764.03;5101842;28;20400;-42
2023/09/23 02:31:31;;;;;;;0.00;0.00;;;;;;;11.59;100.00;100772.94;5105224;28;20042;-45
2023/09/23 02:33:57;;;;;;;0.00;0.00;;;;;;;11.62;100.00;100769.88;5102494;28;20381;-45
2023/09/23 02:36:22;;;;;;;0.00;0.00;;;;;;;11.68;100.00;100767.44;5103591;28;20070;-42
2023/09/23 02:38:48;;;;;;;0.00;0.00;;;;;;;11.70;100.00;100760.00;5104008;28;20032;-43
2023/09/23 02:41:13;;;;;;;0.00;0.00;;;;;;;11.74;100.00;100767.53;5091564;28;20024;-43
2023/09/23 02:43:40;;;;;;;0.00;0.00;;;;;;;11.77;100.00;100769.84;5094395;28;20051;-42
2023/09/23 02:46:06;;;;;;;0.00;0.00;;;;;;;11.79;100.00;100766.94;5110726;28;20165;-44
2023/09/23 02:48:33;;;;;;;0.00;0.00;;;;;;;11.76;100.00;100768.16;5111793;28;20342;-43
2023/09/23 02:51:00;;;;;;;0.00;0.00;;;;;;;11.78;100.00;100759.88;5111219;28;20024;-43
2023/09/23 02:53:26;;;;;;;0.00;0.00;;;;;;;11.77;100.00;100767.13;5098818;28;20020;-43
2023/09/23 02:56:08;;;;;;;0.00;0.00;;;;;;;11.77;100.00;100768.97;5111774;28;20028;-44
2023/09/23 02:58:34;;;;;;;0.00;0.00;;;;;;;11.72;100.00;100766.88;5096005;28;20486;-42
2023/09/23 03:01:01;;;;;;;0.00;0.00;;;;;;;11.71;100.00;100783.22;5108083;28;20054;-45
2023/09/23 03:03:27;;;;;;;0.00;0.00;;;;;;;11.72;100.00;100801.09;5100722;28;20028;-42
2023/09/23 03:05:57;;;;;;;0.00;0.00;;;;;;;11.73;100.00;100810.84;5098585;28;20036;-37
2023/09/23 03:08:23;;;;;;;0.00;0.00;;;;;;;11.73;100.00;100797.38;5102217;28;20427;-38
2023/09/23 03:10:49;;;;;;;0.00;0.00;;;;;;;11.73;100.00;100808.16;5098312;28;20045;-42
2023/09/23 03:13:15;;;;;;;0.00;0.00;;;;;;;11.72;100.00;100806.50;5092462;28;20020;-48
2023/09/23 03:15:49;;;;;;;0.00;0.00;;;;;;;11.68;100.00;100806.00;5095205;28;20024;-44
2023/09/23 03:18:15;;;;;;;0.00;0.00;;;;;;;11.65;100.00;100796.44;5103382;27;20034;-44
2023/09/23 03:20:41;;;;;;;0.00;0.00;;;;;;;11.68;100.00;100799.78;5094888;28;20024;-44
2023/09/23 03:23:10;;;;;;;0.00;0.00;;;;;;;11.66;100.00;100808.06;5091880;28;20028;-43
2023/09/23 03:25:46;;;;;;;0.00;0.00;;;;;;;11.66;100.00;100816.16;5095585;28;20046;-43
2023/09/23 03:28:11;;;;;;;0.00;0.00;;;;;;;11.60;100.00;100815.03;5093975;28;20016;-43
2023/09/23 03:30:36;;;;;;;0.00;0.00;;;;;;;11.57;100.00;100815.44;5093882;28;20530;-43
2023/09/23 03:33:02;;;;;;;0.00;0.00;;;;;;;11.55;100.00;100819.34;5097438;28;20523;-44
2023/09/23 03:35:30;;;;;;;0.00;0.00;;;;;;;11.52;100.00;100817.84;5094198;28;20054;-42
2023/09/23 03:37:55;;;;;;;0.00;0.00;;;;;;;11.53;100.00;100813.28;5108442;28;20027;-44
2023/09/23 03:40:24;;;;;;;0.00;0.00;;;;;;;11.59;100.00;100818.78;5104125;28;20518;-43
2023/09/23 03:42:50;;;;;;;0.00;0.00;;;;;;;11.64;100.00;100815.53;5101125;28;20038;-44
2023/09/23 03:45:17;;;;;;;0.00;0.00;;;;;;;11.64;100.00;100832.53;5098172;28;20028;-42
2023/09/23 03:47:44;;;;;;;0.00;0.00;;;;;;;11.67;100.00;100830.47;5102630;28;20020;-44
2023/09/23 03:50:09;;;;;;;0.00;0.00;;;;;;;11.67;100.00;100833.19;5101398;28;20046;-44
2023/09/23 03:52:36;;;;;;;0.00;0.00;;;;;;;11.68;100.00;100837.53;5090240;28;20028;-42
2023/09/23 03:55:03;;;;;;;0.00;0.00;;;;;;;11.69;100.00;100841.88;5094621;28;20398;-46
2023/09/23 03:57:28;;;;;;;0.00;0.00;;;;;;;11.68;100.00;100838.38;5101970;28;20590;-43
2023/09/23 03:59:54;;;;;;;0.00;0.00;;;;;;;11.70;100.00;100846.28;5104591;28;20040;-43
2023/09/23 04:02:21;;;;;;;0.00;0.00;;;;;;;11.73;100.00;100845.88;5090345;28;20020;-43
2023/09/23 04:04:53;;;;;;;0.00;0.00;;;;;;;11.74;100.00;100848.41;5098603;28;20028;-46
2023/09/23 04:07:21;;;;;;;0.00;0.00;;;;;;;11.76;100.00;100850.91;5109484;28;20657;-42
2023/09/23 04:09:47;;;;;;;0.00;0.00;;;;;;;11.80;100.00;100850.34;5107483;28;20062;-43
2023/09/23 04:12:13;;;;;;;0.00;0.00;;;;;;;11.81;100.00;100849.31;5103295;28;20148;-43
2023/09/23 04:14:38;;;;;;;0.00;0.00;;;;;;;11.85;100.00;100847.09;5094445;28;20411;-43
2023/09/23 04:17:04;;;;;;;0.00;0.00;;;;;;;11.83;100.00;100855.34;5106688;28;20031;-42
2023/09/23 04:19:29;;;;;;;0.00;0.00;;;;;;;11.83;100.00;100859.91;5090326;28;20086;-45
2023/09/23 04:21:55;;;;;;;0.00;0.00;;;;;;;11.80;100.00;100863.00;5091023;28;20020;-44
2023/09/23 04:24:21;;;;;;;0.00;0.00;;;;;;;11.79;100.00;100862.13;5108855;28;20103;-44
2023/09/23 04:26:47;;;;;;;0.00;0.00;;;;;;;11.81;100.00;100870.03;5111222;28;20031;-46
2023/09/23 04:29:12;;;;;;;0.00;0.00;;;;;;;11.80;100.00;100871.09;5102833;28;20493;-45
2023/09/23 04:31:38;;;;;;;0.00;0.00;;;;;;;11.75;100.00;100871.63;5098825;28;20036;-44
2023/09/23 04:34:03;;;;;;;0.00;0.00;;;;;;;11.77;100.00;100874.13;5095070;28;20024;-44
2023/09/23 04:36:28;;;;;;;0.00;0.00;;;;;;;11.72;100.00;100877.41;5092244;28;20442;-45
2023/09/23 04:38:54;;;;;;;0.00;0.00;;;;;;;11.73;100.00;100870.16;5091417;28;20116;-43
2023/09/23 04:41:19;;;;;;;0.00;0.00;;;;;;;11.73;100.00;100889.03;5108800;28;20028;-45
2023/09/23 04:43:45;;;;;;;0.00;0.00;;;;;;;11.73;100.00;100889.03;5103560;28;20448;-46
2023/09/23 04:46:14;;;;;;;0.00;0.00;;;;;;;11.72;100.00;100893.59;5108007;28;20093;-45
2023/09/23 04:48:40;;;;;;;0.00;0.00;;;;;;;11.69;100.00;100885.88;5098780;28;20039;-42
2023/09/23 04:51:08;;;;;;;0.00;0.00;;;;;;;11.70;100.00;100894.81;5111596;28;20031;-44
2023/09/23 04:53:33;;;;;;;0.00;0.00;;;;;;;11.73;100.00;100899.81;5103360;27;20036;-43
2023/09/23 04:55:59;;;;;;;0.00;0.00;;;;;;;11.78;100.00;100900.91;5092075;28;20470;-44
2023/09/23 04:58:24;;;;;;;0.00;0.00;;;;;;;11.79;100.00;100904.44;5091575;28;20028;-42
2023/09/23 05:00:51;;;;;;;0.00;0.00;;;;;;;11.82;100.00;100912.16;5092459;28;20040;-43
2023/09/23 05:03:17;;;;;;;0.00;0.00;;;;;;;11.82;100.00;100915.72;5097453;28;20032;-43
2023/09/23 05:05:42;;;;;;;0.00;0.00;;;;;;;11.82;100.00;100922.94;5096830;28;20077;-42
2023/09/23 05:08:09;;;;;;;0.00;0.00;;;;;;;11.84;100.00;100920.91;5093569;28;20744;-43
2023/09/23 05:10:35;;;;;;;0.00;0.00;;;;;;;11.85;100.00;100923.41;5110507;28;20038;-43
2023/09/23 05:13:01;;;;;;;0.00;0.00;;;;;;;11.86;100.00;100926.97;5110134;28;20405;-44
2023/09/23 05:15:26;;;;;;;0.00;0.00;;;;;;;11.89;100.00;100931.16;5104311;28;20031;-44
2023/09/23 05:17:57;;;;;;;0.00;0.00;;;;;;;11.89;100.00;100925.75;5099825;28;20038;-53
2023/09/23 05:20:22;;;;;;;0.00;0.00;;;;;;;11.89;100.00;100926.59;5094881;28;20046;-44
2023/09/23 05:22:48;;;;;;;0.00;0.00;;;;;;;11.91;100.00;100929.13;5104223;28;20036;-44
2023/09/23 05:25:14;;;;;;;0.00;0.00;;;;;;;11.91;100.00;100932.66;5101045;28;20036;-46
2023/09/23 05:27:40;;;;;;;0.00;0.00;;;;;;;11.89;100.00;100932.00;5091339;28;20028;-45
2023/09/23 05:30:07;;;;;;;0.00;0.00;;;;;;;11.86;100.00;100940.47;5116147;27;20036;-45
2023/09/23 05:32:33;;;;;;;0.00;0.00;;;;;;;11.85;100.00;100941.47;5095233;28;20651;-43
2023/09/23 05:35:00;;;;;;;0.00;0.00;;;;;;;11.85;100.00;100944.16;5100747;27;20035;-45
2023/09/23 05:37:25;;;;;;;0.00;0.00;;;;;;;11.87;100.00;100947.50;5096178;28;20069;-45
2023/09/23 05:39:50;;;;;;;0.00;0.00;;;;;;;11.90;100.00;100955.25;5102591;28;20055;-44
2023/09/23 05:42:20;;;;;;;0.00;0.00;;;;;;;11.92;100.00;100961.28;5098664;28;20442;-44
2023/09/23 05:44:46;;;;;;;0.00;0.00;;;;;;;11.97;100.00;100969.63;5100414;28;20027;-43
2023/09/23 05:47:12;;;;;;;0.00;0.00;;;;;;;12.00;100.00;100971.94;5099653;28;20032;-46
2023/09/23 05:49:38;;;;;;;0.00;0.00;;;;;;;12.03;100.00;100987.78;5091932;28;20036;-45
2023/09/23 05:52:04;;;;;;;0.00;0.00;;;;;;;12.03;100.00;100987.78;5096819;27;20027;-42
2023/09/23 05:54:29;;;;;;;0.00;0.00;;;;;;;12.05;100.00;100988.41;5097264;28;20030;-45
2023/09/23 05:56:55;;;;;;;0.00;0.00;;;;;;;12.05;100.00;100991.13;5097650;28;20027;-44
2023/09/23 05:59:20;;;;;;;0.00;0.00;;;;;;;12.08;100.00;100998.00;5096254;28;20091;-45
2023/09/23 06:01:46;;;;;;;0.00;0.00;;;;;;;12.10;100.00;100995.13;5100186;28;20016;-42
2023/09/23 06:04:11;;;;;;;0.00;0.00;;;;;;;12.11;100.00;100999.47;5100527;28;20015;-41
2023/09/23 06:06:39;;;;;;;0.00;0.00;;;;;;;12.12;100.00;101002.00;5099532;28;20077;-42
2023/09/23 06:09:06;;;;;;;0.00;0.00;;;;;;;12.15;100.00;101006.19;5102117;28;20115;-40
2023/09/23 06:11:32;;;;;;;0.00;0.00;;;;;;;12.17;100.00;101014.94;5102658;28;20100;-41
2023/09/23 06:13:57;;;;;;;0.00;0.00;;;;;;;12.18;100.00;101022.00;5102373;28;20012;-43
2023/09/23 06:16:23;;;;;;;0.00;0.00;;;;;;;12.25;100.00;101022.94;5099622;28;20039;-43
2023/09/23 06:18:48;;;;;;;0.00;0.00;;;;;;;12.36;100.00;101025.13;5093338;28;20034;-43
2023/09/23 06:21:14;;;;;;;0.00;0.00;;;;;;;12.44;100.00;101025.00;5099572;28;20084;-44
2023/09/23 06:23:39;;;;;;;0.00;0.00;;;;;;;12.46;100.00;101025.66;5101507;28;20020;-41
2023/09/23 06:26:05;;;;;;;0.00;0.00;;;;;;;12.52;100.00;101024.06;5099908;28;20031;-42
2023/09/23 06:28:32;;;;;;;0.00;0.00;;;;;;;12.51;100.00;101028.63;5098457;28;20691;-43
2023/09/23 06:30:57;;;;;;;0.00;0.00;;;;;;;12.49;100.00;101030.69;5105488;28;20024;-44
2023/09/23 06:33:23;;;;;;;0.00;0.00;;;;;;;12.54;100.00;101045.50;5101832;28;20534;-43
2023/09/23 06:35:49;;;;;;;0.00;0.00;;;;;;;12.58;100.00;101052.16;5102064;28;20554;-43
2023/09/23 06:38:15;;;;;;;0.00;0.00;;;;;;;12.62;100.00;101061.56;5108549;28;20480;-41
2023/09/23 06:40:40;;;;;;;0.00;0.00;;;;;;;12.66;100.00;101062.84;5103735;28;20020;-37
2023/09/23 06:43:05;;;;;;;0.00;0.00;;;;;;;12.70;100.00;101066.84;5096762;28;20028;-37
2023/09/23 06:45:31;;;;;;;0.00;0.00;;;;;;;12.74;100.00;101049.22;5099741;28;20035;-43
2023/09/23 06:47:57;;;;;;;0.00;0.00;;;;;;;12.71;100.00;101055.84;5110049;28;20083;-46
2023/09/23 06:50:22;;;;;;;0.00;0.00;;;;;;;12.72;100.00;101062.09;5096041;28;20034;-44
2023/09/23 06:52:48;;;;;;;0.00;0.00;;;;;;;12.70;100.00;101061.44;5089676;28;20053;-45
2023/09/23 06:55:13;;;;;;;0.00;0.00;;;;;;;12.71;100.00;101057.72;5089204;28;20035;-44
2023/09/23 06:57:39;;;;;;;0.00;0.00;;;;;;;12.67;100.00;101067.25;5100358;28;20032;-44
2023/09/23 07:00:07;;;;;;;0.00;0.00;;;;;;;12.70;100.00;101072.25;5103233;28;20122;-45
2023/09/23 07:02:36;;;;;;;0.00;0.00;;;;;;;12.75;100.00;101067.13;5106918;27;20428;-45
2023/09/23 07:05:01;;;;;;;0.00;0.00;;;;;;;12.77;100.00;101072.31;5111453;28;20090;-44
2023/09/23 07:07:27;;;;;;;0.00;0.00;;;;;;;12.80;100.00;101080.06;5112097;28;20075;-45
2023/09/23 07:09:53;;;;;;;0.00;0.00;;;;;;;12.85;100.00;101078.47;5111207;28;20043;-43
2023/09/23 07:12:19;;;;;;;0.00;0.00;;;;;;;12.89;100.00;101074.34;5111923;28;20440;-44
2023/09/23 07:14:44;;;;;;;0.00;0.00;;;;;;;12.96;100.00;101074.41;5111692;28;20504;-42
2023/09/23 07:17:09;;;;;;;0.00;0.00;;;;;;;13.08;100.00;101088.22;5111895;28;20031;-41
2023/09/23 07:19:35;;;;;;;0.00;0.00;;;;;;;13.15;100.00;101079.16;5112468;28;20082;-42
2023/09/23 07:22:01;;;;;;;0.00;0.00;;;;;;;13.20;100.00;101089.41;5112302;28;20107;-43
2023/09/23 07:24:27;;;;;;;0.00;0.00;;;;;;;13.53;100.00;101091.59;5112098;28;20032;-46
2023/09/23 07:26:56;;;;;;;0.00;0.00;;;;;;;14.37;100.00;101106.94;5101006;28;20028;-41
2023/09/23 07:29:22;;;;;;;0.00;0.00;;;;;;;14.78;100.00;101112.38;5090449;28;20024;-44
2023/09/23 07:31:48;;;;;;;0.00;0.00;;;;;;;14.82;100.00;101112.78;5090957;28;20356;-46
2023/09/23 07:34:13;;;;;;;0.00;0.00;;;;;;;14.91;100.00;101103.44;5090997;28;20038;-42
2023/09/23 07:36:39;;;;;;;0.00;0.00;;;;;;;15.15;100.00;101097.44;5091190;28;20527;-43
2023/09/23 07:39:05;;;;;;;0.00;0.00;;;;;;;15.66;100.00;101092.47;5091439;28;20552;-42
2023/09/23 07:41:30;;;;;;;0.00;0.00;;;;;;;15.86;100.00;101087.06;5089869;28;20180;-44
2023/09/23 07:43:57;;;;;;;0.00;0.00;;;;;;;15.94;100.00;101071.38;5091718;28;20202;-43
2023/09/23 07:46:22;;;;;;;0.00;0.00;;;;;;;15.87;100.00;101058.88;5090678;28;20031;-44
2023/09/23 07:48:47;;;;;;;0.00;0.00;;;;;;;16.36;100.00;101071.06;5090457;28;20024;-44
2023/09/23 07:51:13;;;;;;;0.00;0.00;;;;;;;17.20;100.00;101089.06;5090485;28;20027;-44
2023/09/23 07:53:38;;;;;;;0.00;0.00;;;;;;;17.77;100.00;101065.38;5103510;28;20039;-43
2023/09/23 07:56:04;;;;;;;0.00;0.00;;;;;;;17.47;100.00;101067.91;5109923;28;20047;-42
2023/09/23 07:58:29;;;;;;;0.00;0.00;;;;;;;17.09;100.00;101071.56;5110561;28;20016;-43
2023/09/23 08:00:54;;;;;;;0.00;0.00;;;;;;;16.60;100.00;101074.94;5114224;27;20051;-43
2023/09/23 08:03:20;;;;;;;0.00;0.00;;;;;;;16.64;100.00;101081.59;5115042;28;20504;-45
2023/09/23 08:05:45;;;;;;;0.00;0.00;;;;;;;17.16;100.00;101087.81;5115198;28;20020;-43
2023/09/23 08:08:11;;;;;;;0.00;0.00;;;;;;;17.58;100.00;101079.97;5114382;28;20110;-42
2023/09/23 08:10:36;;;;;;;0.00;0.00;;;;;;;17.98;100.00;101079.63;5115150;27;20019;-44
2023/09/23 08:13:02;;;;;;;0.00;0.00;;;;;;;18.59;100.00;101086.09;5115386;27;20106;-44
2023/09/23 08:15:28;;;;;;;0.00;0.00;;;;;;;19.27;100.00;101098.56;5115530;28;20284;-43
2023/09/23 08:17:53;;;;;;;0.00;0.00;;;;;;;19.30;100.00;101098.13;5115564;28;20415;-43
2023/09/23 08:20:21;;;;;;;0.00;0.00;;;;;;;19.41;100.00;101105.50;5115299;28;20019;-43
2023/09/23 08:22:47;;;;;;;0.00;0.00;;;;;;;18.95;100.00;101109.72;5114791;28;20098;-45
2023/09/23 08:25:14;;;;;;;0.00;0.00;;;;;;;18.49;100.00;101118.50;5114362;28;20072;-42
2023/09/23 08:27:40;;;;;;;0.00;0.00;;;;;;;18.04;100.00;101125.03;5098365;28;20518;-43
2023/09/23 08:30:07;;;;;;;0.00;0.00;;;;;;;17.68;100.00;101128.47;5094475;28;20430;-44
2023/09/23 08:32:33;;;;;;;0.00;0.00;;;;;;;17.37;100.00;101132.88;5093862;28;20842;-42
2023/09/23 08:34:58;;;;;;;0.00;0.00;;;;;;;17.12;100.00;101135.56;5092853;28;20105;-45
2023/09/23 08:37:23;;;;;;;0.00;0.00;;;;;;;16.78;100.00;101139.50;5094309;28;20016;-42
2023/09/23 08:39:49;;;;;;;0.00;0.00;;;;;;;16.71;100.00;101146.81;5093890;28;20093;-43
2023/09/23 08:42:17;;;;;;;0.00;0.00;;;;;;;16.68;100.00;101158.94;5094776;28;20385;-43
2023/09/23 08:44:43;;;;;;;0.00;0.00;;;;;;;16.69;100.00;101155.16;5101085;28;20427;-43
2023/09/23 08:47:09;;;;;;;0.00;0.00;;;;;;;16.59;100.00;101162.97;5092928;28;20024;-44
2023/09/23 08:49:35;;;;;;;0.00;0.00;;;;;;;16.37;100.00;101175.94;5092695;28;20024;-43
2023/09/23 08:52:02;;;;;;;0.00;0.00;;;;;;;16.10;100.00;101180.59;5093788;28;20081;-43
2023/09/23 08:54:28;;;;;;;0.00;0.00;;;;;;;15.82;100.00;101184.34;5093876;28;20086;-43
2023/09/23 08:56:54;;;;;;;0.00;0.00;;;;;;;15.54;100.00;101196.19;5101584;28;20066;-45
2023/09/23 08:59:20;;;;;;;0.00;0.00;;;;;;;15.30;100.00;101208.47;5114091;28;20063;-49
2023/09/23 09:01:45;;;;;;;0.00;0.00;;;;;;;15.02;100.00;101207.72;5095777;28;20059;-46
2023/09/23 09:04:17;;;;;;;0.00;0.00;;;;;;;14.86;100.00;101222.47;5103212;28;20048;-42
2023/09/23 09:06:48;;;;;;;0.00;0.00;;;;;;;14.70;100.00;101227.16;5094035;28;20031;-45
2023/09/23 09:09:13;;;;;;;0.00;0.00;;;;;;;14.63;100.00;101237.13;5092771;28;20416;-44
2023/09/23 09:11:39;;;;;;;0.00;0.00;;;;;;;14.63;100.00;101245.25;5093860;28;20161;-45
2023/09/23 09:14:04;;;;;;;0.00;0.00;;;;;;;14.60;100.00;101251.06;5093909;28;20047;-46
2023/09/23 09:16:30;;;;;;;0.00;0.00;;;;;;;14.61;100.00;101257.31;5092842;28;20028;-46
2023/09/23 09:18:55;;;;;;;0.00;0.00;;;;;;;14.56;100.00;101268.75;5093173;28;20113;-46
2023/09/23 09:21:21;;;;;;;0.00;0.00;;;;;;;14.57;100.00;101277.72;5093233;28;20024;-45
2023/09/23 09:23:46;;;;;;;0.00;0.00;;;;;;;14.55;100.00;101279.78;5093657;28;20138;-45
2023/09/23 09:26:12;;;;;;;0.00;0.00;;;;;;;14.52;100.00;101290.97;5092634;28;20099;-44
2023/09/23 09:28:38;;;;;;;0.00;0.00;;;;;;;14.49;100.00;101298.47;5092908;28;20024;-50
2023/09/23 09:31:07;;;;;;;0.00;0.00;;;;;;;14.50;100.00;101307.41;5092862;28;20028;-44
2023/09/23 09:33:36;;;;;;;0.00;0.00;;;;;;;14.46;100.00;101308.88;5104931;28;20099;-46
2023/09/23 09:36:02;;;;;;;0.00;0.00;;;;;;;14.53;100.00;101315.19;5112227;28;20035;-44
2023/09/23 09:38:32;;;;;;;0.00;0.00;;;;;;;14.63;100.00;101318.38;5107329;28;20020;-45
2023/09/23 09:41:02;;;;;;;0.00;0.00;;;;;;;14.69;100.00;101320.31;5094904;28;20596;-46
2023/09/23 09:43:30;;;;;;;0.00;0.00;;;;;;;14.81;100.00;101317.88;5095185;28;20968;-47
2023/09/23 09:45:56;;;;;;;0.00;0.00;;;;;;;14.86;100.00;101326.25;5092330;28;20031;-41
2023/09/23 09:48:22;;;;;;;0.00;0.00;;;;;;;14.87;100.00;101321.69;5097097;28;20044;-43
2023/09/23 09:50:49;;;;;;;0.00;0.00;;;;;;;14.85;100.00;101326.44;5096729;28;20477;-47
2023/09/23 09:53:16;;;;;;;0.00;0.00;;;;;;;14.84;100.00;101322.06;5095410;28;20028;-43
2023/09/23 09:55:42;;;;;;;0.00;0.00;;;;;;;14.85;100.00;101326.44;5100486;28;20047;-47
2023/09/23 09:58:07;;;;;;;0.00;0.00;;;;;;;14.86;100.00;101337.09;5096764;28;20027;-44
2023/09/23 10:00:39;;;;;;;0.00;0.00;;;;;;;14.88;100.00;101350.47;5093221;28;20044;-43
2023/09/23 10:03:05;;;;;;;0.00;0.00;;;;;;;14.94;100.00;101349.66;5099758;28;20060;-41
2023/09/23 10:05:39;;;;;;;0.00;0.00;;;;;;;14.90;100.00;101364.63;5096596;28;20100;-42
2023/09/23 10:08:13;;;;;;;0.00;0.00;;;;;;;14.99;100.00;101363.47;5100359;28;20059;-41
2023/09/23 10:10:44;;;;;;;0.00;0.00;;;;;;;15.15;100.00;101368.56;5098289;28;20444;-46
2023/09/23 10:13:24;;;;;;;0.00;0.00;;;;;;;15.11;100.00;101364.59;5085789;28;20027;-45
2023/09/23 10:16:05;;;;;;;0.00;0.00;;;;;;;15.16;100.00;101366.69;5101623;28;20046;-43
2023/09/23 10:18:39;;;;;;;0.00;0.00;;;;;;;15.15;100.00;101362.31;5097160;28;20753;-45
2023/09/23 10:21:05;;;;;;;0.00;0.00;;;;;;;15.05;100.00;101365.38;5097971;28;20035;-44
2023/09/23 10:23:35;;;;;;;0.00;0.00;;;;;;;15.20;100.00;101359.00;5101009;28;20493;-41
2023/09/23 10:26:14;;;;;;;0.00;0.00;;;;;;;15.26;100.00;101363.63;5110162;28;20092;-44
2023/09/23 10:28:40;;;;;;;0.00;0.00;;;;;;;15.44;100.00;101355.78;5105751;28;20110;-41
2023/09/23 10:31:13;;;;;;;0.00;0.00;;;;;;;15.61;100.00;101358.97;5101765;28;20206;-42
2023/09/23 10:33:39;;;;;;;0.00;0.00;;;;;;;15.91;100.00;101362.25;5101369;28;20066;-44
2023/09/23 10:36:05;;;;;;;0.00;0.00;;;;;;;16.01;100.00;101367.31;5092246;28;20131;-42
2023/09/23 10:38:34;;;;;;;0.00;0.00;;;;;;;16.20;100.00;101363.78;5098322;28;20024;-43
2023/09/23 10:41:00;;;;;;;0.00;0.00;;;;;;;16.24;100.00;101366.91;5099535;28;20036;-44
2023/09/23 10:43:26;;;;;;;0.00;0.00;;;;;;;16.35;100.00;101371.75;5106344;28;20036;-45
2023/09/23 10:45:52;;;;;;;0.00;0.00;;;;;;;16.43;100.00;101370.72;5089947;28;20024;-46
2023/09/23 10:48:18;;;;;;;0.00;0.00;;;;;;;16.52;100.00;101374.91;5104763;28;20032;-43
2023/09/23 10:50:44;;;;;;;0.00;0.00;;;;;;;16.38;100.00;101371.34;5097967;28;20044;-44
2023/09/23 10:53:11;;;;;;;0.00;0.00;;;;;;;16.50;100.00;101371.53;5090733;28;20073;-44
2023/09/23 10:55:36;;;;;;;0.00;0.00;;;;;;;16.41;100.00;101375.53;5094178;28;20039;-43
2023/09/23 10:58:02;;;;;;;0.00;0.00;;;;;;;16.33;100.00;101375.72;5094371;28;20089;-42
2023/09/23 11:00:33;;;;;;;0.00;0.00;;;;;;;16.38;100.00;101378.66;5089274;28;20075;-42
2023/09/23 11:03:05;;;;;;;0.00;0.00;;;;;;;16.42;100.00;101380.72;5089919;28;20047;-46
2023/09/23 11:05:30;;;;;;;0.00;0.00;;;;;;;16.58;100.00;101378.66;5089386;28;20335;-43
2023/09/23 11:07:56;;;;;;;0.00;0.00;;;;;;;16.85;100.00;101380.38;5089077;28;20020;-44
2023/09/23 11:10:23;;;;;;;0.00;0.00;;;;;;;17.14;100.00;101383.69;5088826;28;20076;-48
2023/09/23 11:12:48;;;;;;;0.00;0.00;;;;;;;17.47;100.00;101394.47;5090403;28;20469;-45
2023/09/23 11:15:14;;;;;;;0.00;0.00;;;;;;;17.72;100.00;101380.97;5089135;28;20063;-45